Time;durP1;ratioP1;P1;durP2;ratioP2;P2;SDS_P1;SDS_P2;PMS_P1;PMS_P2;Temp;Humidity;BMP_temperature;BMP_pressure;BME280_temperature;BME280_humidity;BME280_pressure;Samples;Min_cycle;Max_cycle;Signal;HPM_P1;HPM_P2
2022/04/29 00:00:07;;;;;;;8.55;3.70;;;15.80;99.90;;;;;;5109747;28;20482;-72
2022/04/29 00:02:35;;;;;;;10.68;4.65;;;15.70;99.90;;;;;;5109622;28;20026;-72
2022/04/29 00:05:01;;;;;;;9.98;5.15;;;15.60;99.90;;;;;;5110058;27;20023;-72
2022/04/29 00:07:27;;;;;;;7.50;4.80;;;15.40;99.90;;;;;;5113297;28;20402;-73
2022/04/29 00:09:52;;;;;;;7.43;4.65;;;15.20;99.90;;;;;;5110152;28;20028;-73
2022/04/29 00:12:19;;;;;;;7.65;4.35;;;15.10;99.90;;;;;;5109325;28;20080;-73
2022/04/29 00:14:45;;;;;;;9.05;5.13;;;14.90;99.90;;;;;;5109652;28;20030;-73
2022/04/29 00:17:11;;;;;;;8.63;4.70;;;14.80;99.90;;;;;;5110411;28;20047;-73
2022/04/29 00:19:38;;;;;;;9.15;4.57;;;14.80;99.90;;;;;;5111832;27;20050;-72
2022/04/29 00:22:04;;;;;;;9.40;4.85;;;14.80;99.90;;;;;;5110279;28;20027;-73
2022/04/29 00:24:30;;;;;;;8.07;6.03;;;14.90;99.90;;;;;;5110361;28;20066;-72
2022/04/29 00:26:58;;;;;;;8.45;6.20;;;15.00;99.90;;;;;;5109266;28;20028;-73
2022/04/29 00:29:24;;;;;;;9.65;6.30;;;15.10;99.90;;;;;;5109443;28;20023;-72
2022/04/29 00:31:50;;;;;;;9.05;6.13;;;15.20;99.90;;;;;;5110969;28;20047;-72
2022/04/29 00:34:17;;;;;;;10.10;5.63;;;15.20;99.90;;;;;;5111905;28;20028;-73
2022/04/29 00:36:42;;;;;;;11.98;5.30;;;15.20;99.90;;;;;;5108673;28;20019;-72
2022/04/29 00:39:08;;;;;;;10.75;5.38;;;15.20;99.90;;;;;;5109105;28;20042;-73
2022/04/29 00:41:34;;;;;;;9.40;4.40;;;15.20;99.90;;;;;;5109749;28;20469;-72
2022/04/29 00:44:05;;;;;;;8.43;4.35;;;15.30;99.90;;;;;;5108039;28;20019;-73
2022/04/29 00:46:41;;;;;;;6.88;4.00;;;15.30;99.90;;;;;;5109356;28;20026;-73
2022/04/29 00:49:10;;;;;;;7.38;3.72;;;15.30;99.90;;;;;;5111842;28;20019;-72
2022/04/29 00:51:36;;;;;;;7.68;3.72;;;15.50;99.90;;;;;;5108582;28;20032;-73
2022/04/29 00:54:06;;;;;;;8.05;4.20;;;15.50;99.90;;;;;;5109033;28;20513;-73
2022/04/29 00:56:36;;;;;;;8.07;4.13;;;15.50;99.90;;;;;;5109703;28;20024;-72
2022/04/29 00:59:09;;;;;;;10.07;4.80;;;15.40;99.90;;;;;;5093121;28;20039;-73
2022/04/29 01:01:36;;;;;;;9.10;4.38;;;15.30;99.90;;;;;;5111812;28;20034;-72
2022/04/29 01:04:03;;;;;;;7.13;4.45;;;15.10;99.90;;;;;;5111325;28;20032;-72
2022/04/29 01:06:29;;;;;;;9.07;5.03;;;15.00;99.90;;;;;;5108833;28;20031;-73
2022/04/29 01:08:55;;;;;;;9.70;5.80;;;14.70;99.90;;;;;;5108550;28;20454;-73
2022/04/29 01:11:25;;;;;;;7.78;4.85;;;14.60;99.90;;;;;;5108999;28;20020;-73
2022/04/29 01:13:52;;;;;;;8.25;4.70;;;14.50;99.90;;;;;;5109776;28;20036;-72
2022/04/29 01:16:19;;;;;;;8.50;5.18;;;14.50;99.90;;;;;;5111258;28;20538;-73
2022/04/29 01:18:47;;;;;;;7.57;4.60;;;14.50;99.90;;;;;;5108417;28;20118;-73
2022/04/29 01:21:13;;;;;;;7.82;4.25;;;14.50;99.90;;;;;;5106734;28;20040;-72
2022/04/29 01:23:38;;;;;;;7.68;4.60;;;14.60;99.90;;;;;;5108924;28;20516;-73
2022/04/29 01:26:07;;;;;;;10.57;4.07;;;14.70;99.90;;;;;;5108784;28;20033;-72
2022/04/29 01:28:35;;;;;;;8.43;4.10;;;14.70;99.90;;;;;;5111783;28;20378;-72
2022/04/29 01:31:03;;;;;;;8.50;4.28;;;14.80;99.90;;;;;;5109589;28;20465;-73
2022/04/29 01:33:30;;;;;;;8.50;4.20;;;14.90;99.90;;;;;;5108267;28;20032;-73
2022/04/29 01:35:56;;;;;;;9.02;4.00;;;15.00;99.90;;;;;;5108630;28;20096;-73
2022/04/29 01:38:22;;;;;;;10.00;4.40;;;15.20;99.90;;;;;;5108101;28;20490;-72
2022/04/29 01:40:48;;;;;;;9.75;4.30;;;15.40;99.90;;;;;;5110791;28;20432;-73
2022/04/29 01:43:14;;;;;;;9.60;4.50;;;15.50;99.90;;;;;;5110232;28;20023;-72
2022/04/29 01:45:40;;;;;;;9.82;4.85;;;15.60;99.90;;;;;;5108444;28;20034;-72
2022/04/29 01:48:05;;;;;;;8.25;4.38;;;15.60;99.90;;;;;;5107754;28;20525;-72
2022/04/29 01:50:31;;;;;;;9.20;4.30;;;15.60;99.90;;;;;;5108177;28;20034;-73
2022/04/29 01:52:57;;;;;;;9.57;4.57;;;15.60;99.90;;;;;;5109076;28;20035;-73
2022/04/29 01:55:23;;;;;;;9.23;5.00;;;15.60;99.90;;;;;;5111598;28;20149;-73
2022/04/29 01:57:50;;;;;;;9.57;5.97;;;15.50;99.90;;;;;;5107774;28;20108;-72
2022/04/29 02:00:17;;;;;;;15.80;5.93;;;15.10;99.90;;;;;;5108197;28;20028;-72
2022/04/29 02:02:43;;;;;;;10.30;6.15;;;14.70;99.90;;;;;;5107689;28;20031;-72
2022/04/29 02:05:11;;;;;;;11.82;6.20;;;14.20;99.90;;;;;;5108045;28;20024;-73
2022/04/29 02:07:36;;;;;;;10.70;6.13;;;14.00;99.90;;;;;;5111111;28;20036;-72
2022/04/29 02:10:03;;;;;;;13.25;6.82;;;13.80;99.90;;;;;;5109256;28;20016;-73
2022/04/29 02:12:28;;;;;;;13.90;6.10;;;13.80;99.90;;;;;;5107931;28;20401;-72
2022/04/29 02:14:54;;;;;;;9.30;5.95;;;13.90;99.90;;;;;;5108211;28;20103;-72
2022/04/29 02:17:20;;;;;;;11.55;5.50;;;14.10;99.90;;;;;;5107363;28;20039;-73
2022/04/29 02:19:46;;;;;;;11.32;5.45;;;14.30;99.90;;;;;;5110292;28;20126;-73
2022/04/29 02:22:12;;;;;;;10.65;5.25;;;14.50;99.90;;;;;;5109851;28;20512;-73
2022/04/29 02:24:37;;;;;;;9.18;5.30;;;14.70;99.90;;;;;;5109813;28;20024;-73
2022/04/29 02:27:04;;;;;;;8.77;5.68;;;14.80;99.90;;;;;;5111951;27;20127;-72
2022/04/29 02:29:30;;;;;;;10.85;5.32;;;14.90;99.90;;;;;;5111827;28;20016;-73
2022/04/29 02:31:57;;;;;;;11.48;5.45;;;15.00;99.90;;;;;;5112259;28;20035;-73
2022/04/29 02:34:25;;;;;;;10.90;6.57;;;15.00;99.90;;;;;;5115248;28;20036;-72
2022/04/29 02:36:52;;;;;;;10.73;6.10;;;14.70;99.90;;;;;;5111418;28;20114;-73
2022/04/29 02:39:18;;;;;;;11.70;6.60;;;14.30;99.90;;;;;;5110446;28;20079;-72
2022/04/29 02:41:44;;;;;;;8.98;5.70;;;14.10;99.90;;;;;;5111500;28;20043;-72
2022/04/29 02:44:10;;;;;;;10.25;6.00;;;14.00;99.90;;;;;;5111763;28;20085;-73
2022/04/29 02:47:06;;;;;;;8.98;6.78;;;13.90;99.90;;;;;;5114029;28;20068;-73
2022/04/29 02:49:22;;;;;;;11.55;6.78;;;13.80;99.90;;;;;;5114491;28;20063;-73
2022/04/29 02:51:47;;;;;;;8.63;6.10;;;13.80;99.90;;;;;;5111454;28;20059;-72
2022/04/29 02:54:14;;;;;;;10.38;6.38;;;13.80;99.90;;;;;;5111477;28;20028;-73
2022/04/29 02:56:40;;;;;;;11.30;6.90;;;13.80;99.90;;;;;;5111470;28;20050;-72
2022/04/29 02:59:05;;;;;;;8.57;5.88;;;13.70;99.90;;;;;;5112846;28;20517;-73
2022/04/29 03:01:33;;;;;;;10.93;6.20;;;13.80;99.90;;;;;;5114656;28;20108;-73
2022/04/29 03:03:59;;;;;;;10.27;6.22;;;13.70;99.90;;;;;;5112017;28;20036;-73
2022/04/29 03:06:26;;;;;;;12.00;6.30;;;14.00;99.90;;;;;;5110992;28;20019;-72
2022/04/29 03:08:52;;;;;;;8.63;5.30;;;14.40;99.90;;;;;;5110983;27;20027;-72
2022/04/29 03:11:19;;;;;;;11.32;5.25;;;14.60;99.90;;;;;;5111294;28;20575;-73
2022/04/29 03:13:45;;;;;;;8.82;5.35;;;14.80;99.90;;;;;;5113292;28;20031;-72
2022/04/29 03:16:11;;;;;;;9.10;5.53;;;14.90;99.90;;;;;;5111846;28;20042;-73
2022/04/29 03:18:37;;;;;;;9.73;5.80;;;14.90;99.90;;;;;;5110834;28;20035;-72
2022/04/29 03:21:03;;;;;;;8.93;5.53;;;14.90;99.90;;;;;;5110508;28;20058;-72
2022/04/29 03:23:29;;;;;;;9.60;5.50;;;14.80;99.90;;;;;;5111263;28;20439;-72
2022/04/29 03:25:55;;;;;;;10.30;5.10;;;14.80;99.90;;;;;;5111764;28;20028;-72
2022/04/29 03:28:21;;;;;;;9.10;5.40;;;14.70;99.90;;;;;;5113589;28;20027;-73
2022/04/29 03:30:47;;;;;;;9.80;5.20;;;14.80;99.90;;;;;;5110115;28;20020;-73
2022/04/29 03:33:13;;;;;;;9.38;5.00;;;14.80;99.90;;;;;;5110992;28;20110;-72
2022/04/29 03:35:41;;;;;;;6.63;5.20;;;14.80;99.90;;;;;;5109284;28;20012;-72
2022/04/29 03:38:07;;;;;;;7.47;5.05;;;14.80;99.90;;;;;;5111854;28;20482;-72
2022/04/29 03:40:33;;;;;;;6.85;5.03;;;14.70;99.90;;;;;;5113969;28;20020;-73
2022/04/29 03:42:58;;;;;;;10.75;6.00;;;14.70;99.90;;;;;;5111201;28;20028;-73
2022/04/29 03:45:26;;;;;;;11.30;6.40;;;14.50;99.90;;;;;;5110200;28;20080;-73
2022/04/29 03:47:55;;;;;;;10.30;6.28;;;14.10;99.90;;;;;;5110436;28;20035;-72
2022/04/29 03:50:23;;;;;;;11.75;6.32;;;13.90;99.90;;;;;;5110304;28;20051;-72
2022/04/29 03:53:04;;;;;;;10.40;6.22;;;13.70;99.90;;;;;;5111980;28;20027;-73
2022/04/29 03:55:32;;;;;;;14.43;6.72;;;13.60;99.90;;;;;;5109839;28;20019;-73
2022/04/29 03:57:59;;;;;;;11.98;6.07;;;13.60;99.90;;;;;;5112488;28;20379;-72
2022/04/29 04:00:28;;;;;;;8.27;5.70;;;13.70;99.90;;;;;;5109747;27;20481;-72
2022/04/29 04:02:54;;;;;;;8.13;4.93;;;13.80;99.90;;;;;;5109928;28;20028;-72
2022/04/29 04:05:19;;;;;;;11.68;5.55;;;14.10;99.90;;;;;;5110260;28;20031;-73
2022/04/29 04:07:45;;;;;;;7.35;4.75;;;14.50;99.90;;;;;;5112103;28;20023;-72
2022/04/29 04:10:12;;;;;;;9.50;5.15;;;14.50;99.90;;;;;;5112169;28;20103;-72
2022/04/29 04:12:42;;;;;;;8.82;4.63;;;14.50;99.90;;;;;;5110140;28;20034;-72
2022/04/29 04:15:09;;;;;;;6.97;4.85;;;14.50;99.90;;;;;;5109808;28;20106;-72
2022/04/29 04:17:36;;;;;;;8.82;5.45;;;14.60;99.90;;;;;;5109890;28;20080;-72
2022/04/29 04:20:02;;;;;;;8.18;5.32;;;14.60;99.90;;;;;;5109823;28;20040;-73
2022/04/29 04:22:28;;;;;;;8.15;5.03;;;14.60;99.90;;;;;;5109451;28;20024;-72
2022/04/29 04:24:57;;;;;;;7.53;4.90;;;14.50;99.90;;;;;;5109885;28;20428;-73
2022/04/29 04:27:23;;;;;;;8.02;5.13;;;14.50;99.90;;;;;;5109512;28;20031;-72
2022/04/29 04:29:49;;;;;;;10.05;5.88;;;14.40;99.90;;;;;;5109362;27;20504;-73
2022/04/29 04:32:15;;;;;;;11.63;6.35;;;14.20;99.90;;;;;;5109391;28;20104;-73
2022/04/29 04:34:57;;;;;;;11.45;6.40;;;14.10;99.90;;;;;;5112252;27;20019;-73
2022/04/29 04:37:24;;;;;;;9.80;5.90;;;13.90;99.90;;;;;;5112389;28;20031;-73
2022/04/29 04:39:51;;;;;;;14.90;7.15;;;13.80;99.90;;;;;;5109706;28;20050;-73
2022/04/29 04:42:17;;;;;;;12.52;6.97;;;13.70;99.90;;;;;;5108603;28;20072;-72
2022/04/29 04:44:47;;;;;;;11.80;6.90;;;13.60;99.90;;;;;;5107920;28;20034;-73
2022/04/29 04:47:13;;;;;;;11.90;6.40;;;13.50;99.90;;;;;;5108706;28;20495;-73
2022/04/29 04:49:39;;;;;;;14.57;7.43;;;13.40;99.90;;;;;;5111832;28;20672;-73
2022/04/29 04:52:05;;;;;;;14.45;7.10;;;13.50;99.90;;;;;;5110725;28;20165;-72
2022/04/29 04:54:31;;;;;;;13.90;6.63;;;13.40;99.90;;;;;;5109025;28;20028;-73
2022/04/29 04:56:57;;;;;;;10.85;6.70;;;13.40;99.90;;;;;;5110090;28;20493;-73
2022/04/29 04:59:23;;;;;;;13.35;6.85;;;13.50;99.90;;;;;;5109077;28;20047;-72
2022/04/29 05:01:48;;;;;;;10.90;6.30;;;13.70;99.90;;;;;;5111068;28;20019;-72
2022/04/29 05:04:14;;;;;;;10.13;5.63;;;13.90;99.90;;;;;;5110660;28;20513;-72
2022/04/29 05:06:40;;;;;;;8.52;5.82;;;14.20;99.90;;;;;;5108904;28;20106;-72
2022/04/29 05:09:07;;;;;;;10.02;5.50;;;14.40;99.90;;;;;;5108828;28;20479;-73
2022/04/29 05:11:33;;;;;;;10.43;5.30;;;14.40;99.90;;;;;;5108516;28;20311;-72
2022/04/29 05:13:59;;;;;;;11.10;5.55;;;14.50;99.90;;;;;;5110069;28;20051;-73
2022/04/29 05:16:27;;;;;;;10.55;6.07;;;14.60;99.90;;;;;;5112167;28;20489;-72
2022/04/29 05:18:52;;;;;;;10.60;6.40;;;14.70;99.90;;;;;;5108388;28;20070;-72
2022/04/29 05:21:18;;;;;;;13.80;6.20;;;14.80;99.90;;;;;;5108906;28;20071;-72
2022/04/29 05:23:44;;;;;;;10.18;5.85;;;14.80;99.90;;;;;;5108511;28;20474;-73
2022/04/29 05:26:10;;;;;;;10.40;6.70;;;14.90;99.90;;;;;;5108057;28;20023;-73
2022/04/29 05:28:36;;;;;;;12.50;6.45;;;15.00;99.90;;;;;;5111837;28;20036;-72
2022/04/29 05:31:03;;;;;;;10.73;6.13;;;15.00;99.90;;;;;;5109317;28;20024;-73
2022/04/29 05:33:31;;;;;;;8.80;6.07;;;15.00;99.90;;;;;;5108444;28;20536;-72
2022/04/29 05:35:58;;;;;;;14.60;6.80;;;15.10;99.90;;;;;;5107711;28;20039;-72
2022/04/29 05:38:23;;;;;;;10.52;6.47;;;15.10;99.90;;;;;;5107906;28;20528;-72
2022/04/29 05:43:33;;;;;;;9.77;6.78;;;15.20;99.90;;;;;;5108220;28;20569;-72
2022/04/29 05:45:59;;;;;;;11.10;6.88;;;15.30;99.90;;;;;;5108962;28;20106;-73
2022/04/29 05:48:25;;;;;;;9.38;6.97;;;15.30;99.90;;;;;;5108296;28;20103;-72
2022/04/29 05:50:51;;;;;;;9.45;6.80;;;15.30;99.90;;;;;;5108228;28;20020;-73
2022/04/29 05:53:16;;;;;;;10.32;6.07;;;15.40;99.90;;;;;;5108511;28;20028;-72
2022/04/29 05:55:43;;;;;;;10.82;6.35;;;15.40;99.90;;;;;;5109914;28;20024;-72
2022/04/29 05:58:09;;;;;;;12.93;7.15;;;15.50;99.90;;;;;;5109648;28;20028;-73
2022/04/29 06:00:35;;;;;;;14.82;6.70;;;15.60;99.90;;;;;;5111982;28;20024;-72
2022/04/29 06:03:01;;;;;;;10.77;6.30;;;15.60;99.90;;;;;;5112312;28;20375;-72
2022/04/29 06:05:27;;;;;;;9.43;6.60;;;15.70;99.90;;;;;;5112392;28;20095;-72
2022/04/29 06:07:53;;;;;;;8.77;6.28;;;15.70;99.90;;;;;;5114146;28;20110;-72
2022/04/29 06:10:22;;;;;;;9.80;5.70;;;15.80;99.90;;;;;;5114324;28;20482;-72
2022/04/29 06:12:48;;;;;;;11.93;6.20;;;15.80;99.90;;;;;;5112163;28;20020;-73
2022/04/29 06:15:16;;;;;;;12.15;6.35;;;15.80;99.90;;;;;;5112453;28;20031;-72
2022/04/29 06:17:42;;;;;;;8.45;6.05;;;15.80;99.90;;;;;;5112139;28;20046;-73
2022/04/29 06:20:09;;;;;;;9.82;6.13;;;15.80;99.90;;;;;;5111926;28;20055;-72
2022/04/29 06:22:34;;;;;;;12.40;5.93;;;15.70;99.90;;;;;;5115029;28;20115;-73
2022/04/29 06:25:00;;;;;;;10.93;6.57;;;15.80;99.90;;;;;;5112498;28;20396;-73
2022/04/29 06:27:26;;;;;;;10.23;6.50;;;15.80;99.90;;;;;;5111812;28;20454;-73
2022/04/29 06:29:51;;;;;;;10.30;6.35;;;15.80;99.90;;;;;;5112262;27;20032;-72
2022/04/29 06:32:17;;;;;;;12.48;6.72;;;15.90;99.90;;;;;;5111879;28;20024;-73
2022/04/29 06:34:43;;;;;;;12.43;6.18;;;15.90;99.90;;;;;;5114223;28;20509;-73
2022/04/29 06:37:10;;;;;;;12.15;6.13;;;16.10;99.90;;;;;;5113465;28;20020;-72
2022/04/29 06:39:37;;;;;;;8.15;6.00;;;16.20;99.90;;;;;;5110889;28;20558;-73
2022/04/29 06:42:04;;;;;;;9.63;5.80;;;16.40;99.90;;;;;;5112062;28;20367;-73
2022/04/29 06:44:29;;;;;;;8.68;6.35;;;16.60;99.90;;;;;;5111621;28;20039;-72
2022/04/29 06:46:55;;;;;;;9.13;5.75;;;16.70;99.90;;;;;;5112927;28;20031;-73
2022/04/29 06:49:21;;;;;;;7.90;5.55;;;16.80;99.90;;;;;;5114363;28;20111;-72
2022/04/29 06:51:47;;;;;;;10.10;5.38;;;16.90;99.90;;;;;;5110391;28;20093;-72
2022/04/29 06:54:12;;;;;;;8.02;5.13;;;17.00;99.90;;;;;;5111348;28;20035;-73
2022/04/29 06:56:38;;;;;;;8.55;5.13;;;17.00;99.90;;;;;;5111476;28;20019;-73
2022/04/29 06:59:04;;;;;;;9.63;5.75;;;17.10;99.90;;;;;;5111510;28;20122;-73
2022/04/29 07:01:30;;;;;;;9.25;5.80;;;17.10;99.90;;;;;;5114998;28;20020;-73
2022/04/29 07:03:56;;;;;;;7.93;5.53;;;17.20;99.90;;;;;;5111680;28;20031;-72
2022/04/29 07:06:22;;;;;;;9.15;5.60;;;17.20;99.90;;;;;;5110851;28;20493;-72
2022/04/29 07:08:48;;;;;;;13.05;5.47;;;17.20;99.90;;;;;;5110700;28;20028;-72
2022/04/29 07:11:14;;;;;;;8.10;4.88;;;17.30;99.90;;;;;;5110988;28;20390;-72
2022/04/29 07:13:42;;;;;;;10.40;5.20;;;17.30;99.90;;;;;;5113838;28;20386;-73
2022/04/29 07:16:09;;;;;;;8.00;4.68;;;17.40;99.90;;;;;;5112377;28;20024;-73
2022/04/29 07:18:36;;;;;;;9.10;5.10;;;17.50;99.90;;;;;;5110802;28;20034;-72
2022/04/29 07:21:03;;;;;;;7.78;4.40;;;17.60;99.90;;;;;;5110500;28;20578;-72
2022/04/29 07:23:29;;;;;;;9.82;4.88;;;17.70;99.90;;;;;;5110504;28;20034;-72
2022/04/29 07:25:54;;;;;;;8.68;4.63;;;17.80;99.90;;;;;;5112696;28;20027;-72
2022/04/29 07:28:21;;;;;;;7.50;4.43;;;17.90;99.90;;;;;;5113379;28;20055;-73
2022/04/29 07:30:47;;;;;;;11.25;4.50;;;17.90;99.90;;;;;;5110727;28;20062;-73
2022/04/29 07:33:14;;;;;;;9.65;4.70;;;18.00;99.90;;;;;;5111209;28;20033;-72
2022/04/29 07:43:52;;;;;;;;;;;18.20;99.90;;;;;;5112587;28;20264;-72
2022/04/29 07:46:19;;;;;;;9.40;5.82;;;18.30;99.90;;;;;;5112565;28;19990;-72
2022/04/29 07:48:45;;;;;;;8.45;5.47;;;18.30;99.90;;;;;;5110241;28;20496;-72
2022/04/29 07:51:11;;;;;;;10.68;7.20;;;18.40;99.90;;;;;;5110167;28;20058;-73
2022/04/29 07:53:36;;;;;;;9.90;6.60;;;18.50;99.90;;;;;;5110344;28;20165;-72
2022/04/29 07:56:02;;;;;;;8.18;5.57;;;18.50;99.90;;;;;;5110595;28;20030;-72
2022/04/29 07:58:28;;;;;;;12.63;5.82;;;18.60;99.90;;;;;;5113787;28;20042;-72
2022/04/29 08:00:55;;;;;;;7.50;5.53;;;18.60;99.90;;;;;;5109937;28;20035;-72
2022/04/29 08:03:21;;;;;;;8.93;5.50;;;18.70;99.90;;;;;;5110647;28;20119;-72
2022/04/29 08:05:47;;;;;;;11.70;7.43;;;18.80;99.90;;;;;;5109701;28;20152;-72
2022/04/29 08:08:13;;;;;;;14.02;9.20;;;18.80;99.90;;;;;;5110031;28;20039;-73
2022/04/29 08:10:39;;;;;;;10.63;6.32;;;18.90;99.90;;;;;;5113321;28;20024;-72
2022/04/29 08:13:04;;;;;;;11.15;6.82;;;19.00;99.90;;;;;;5112285;28;20023;-72
2022/04/29 08:15:31;;;;;;;10.05;7.15;;;19.20;99.80;;;;;;5109741;28;20106;-72
2022/04/29 08:17:57;;;;;;;11.10;6.70;;;19.30;99.40;;;;;;5109487;28;20042;-73
2022/04/29 08:20:23;;;;;;;10.55;6.05;;;19.30;99.90;;;;;;5109553;28;20042;-72
2022/04/29 08:22:50;;;;;;;7.40;5.65;;;19.40;99.90;;;;;;5111046;27;20431;-72
2022/04/29 08:25:18;;;;;;;10.13;5.60;;;19.40;99.10;;;;;;5111581;28;20022;-73
2022/04/29 08:27:46;;;;;;;7.45;5.00;;;19.50;98.90;;;;;;5109501;28;20102;-72
2022/04/29 08:30:12;;;;;;;8.25;5.70;;;19.60;97.60;;;;;;5109744;28;20027;-72
2022/04/29 08:32:45;;;;;;;11.02;5.30;;;19.70;98.30;;;;;;5109467;28;20032;-72
2022/04/29 08:35:13;;;;;;;8.40;4.93;;;19.80;99.20;;;;;;5109132;28;20024;-72
2022/04/29 08:37:43;;;;;;;8.27;4.88;;;19.80;97.50;;;;;;5111859;28;20146;-72
2022/04/29 08:40:11;;;;;;;7.78;4.90;;;20.00;97.40;;;;;;5112330;28;20111;-72
2022/04/29 08:42:38;;;;;;;9.77;5.47;;;20.10;97.60;;;;;;5109303;28;20008;-72
2022/04/29 08:45:12;;;;;;;11.00;5.40;;;20.10;97.10;;;;;;5109811;28;20058;-72
2022/04/29 08:47:43;;;;;;;7.20;5.05;;;20.10;97.50;;;;;;5109108;28;20020;-72
2022/04/29 08:50:11;;;;;;;6.60;4.13;;;20.30;96.30;;;;;;5109060;28;20023;-72
2022/04/29 08:52:38;;;;;;;9.63;4.85;;;20.40;95.90;;;;;;5112150;28;20486;-72
2022/04/29 09:00:33;;;;;;;;;;;20.60;94.50;;;;;;5109640;28;20042;-72
2022/04/29 09:03:02;;;;;;;7.47;4.30;;;20.70;93.40;;;;;;5108467;28;19908;-72
2022/04/29 09:05:28;;;;;;;6.70;4.30;;;20.70;92.80;;;;;;5109069;28;20020;-72
2022/04/29 09:07:55;;;;;;;7.68;4.22;;;20.90;91.90;;;;;;5110502;27;20049;-72
2022/04/29 09:10:22;;;;;;;7.28;3.50;;;21.00;92.90;;;;;;5111352;28;20019;-72
2022/04/29 09:12:48;;;;;;;8.38;4.05;;;21.10;90.80;;;;;;5108488;28;20095;-72
2022/04/29 09:15:15;;;;;;;7.72;3.83;;;21.30;91.20;;;;;;5109176;28;20019;-72
2022/04/29 09:17:46;;;;;;;6.93;3.17;;;21.40;90.90;;;;;;5108101;28;20085;-72
2022/04/29 09:20:16;;;;;;;6.47;3.40;;;21.30;90.00;;;;;;5108612;28;20071;-72
2022/04/29 09:22:46;;;;;;;6.60;3.40;;;21.40;89.50;;;;;;5111300;28;20501;-72
2022/04/29 09:25:12;;;;;;;5.38;2.92;;;21.50;85.60;;;;;;5110213;28;20508;-72
2022/04/29 09:28:03;;;;;;;8.88;3.53;;;21.70;87.70;;;;;;5108518;28;20034;-72
2022/04/29 09:30:39;;;;;;;6.60;3.70;;;21.90;87.40;;;;;;5109970;28;20410;-72
2022/04/29 09:33:07;;;;;;;7.80;3.47;;;22.10;85.90;;;;;;5107972;28;20016;-72
2022/04/29 09:35:43;;;;;;;5.47;3.50;;;22.10;85.20;;;;;;5108761;28;20080;-73
2022/04/29 09:40:55;;;;;;;5.68;3.20;;;22.40;85.30;;;;;;5110083;28;20147;-72
2022/04/29 09:43:38;;;;;;;5.95;3.20;;;22.40;84.70;;;;;;5111014;28;20019;-72
2022/04/29 09:46:20;;;;;;;6.68;3.40;;;22.60;79.20;;;;;;5109479;28;20038;-72
2022/04/29 09:48:55;;;;;;;6.55;3.10;;;22.60;80.00;;;;;;5108389;28;20084;-73
2022/04/29 09:51:45;;;;;;;5.93;3.15;;;22.60;81.20;;;;;;5106990;28;20019;-73
2022/04/29 09:54:23;;;;;;;7.15;3.10;;;22.60;82.90;;;;;;5108102;28;20035;-73
2022/04/29 09:57:03;;;;;;;5.68;3.10;;;22.70;83.90;;;;;;5108022;28;20050;-73
2022/04/29 09:59:34;;;;;;;6.03;2.97;;;22.80;78.40;;;;;;5108011;28;20048;-73
2022/04/29 10:02:00;;;;;;;14.23;4.72;;;22.90;80.10;;;;;;5108928;28;20045;-73
2022/04/29 10:04:31;;;;;;;7.97;2.95;;;22.90;80.20;;;;;;5111523;28;20410;-73
2022/04/29 10:06:58;;;;;;;5.53;2.92;;;22.80;79.10;;;;;;5108006;28;20031;-72
2022/04/29 10:09:28;;;;;;;5.70;2.83;;;22.90;81.50;;;;;;5108321;28;20024;-72
2022/04/29 10:11:56;;;;;;;11.43;3.50;;;23.10;79.50;;;;;;5107860;28;20088;-73
2022/04/29 10:14:23;;;;;;;7.35;3.22;;;23.30;77.80;;;;;;5108062;28;20028;-72
2022/04/29 10:21:15;;;;;;;7.03;3.10;;;23.20;80.10;;;;;;5109927;28;20058;-73
2022/04/29 10:22:28;;;;;;;6.03;3.10;;;23.40;74.40;;;;;;5111849;28;20059;-73
2022/04/29 10:24:54;;;;;;;7.20;3.08;;;23.40;74.30;;;;;;5107875;28;20493;-73
2022/04/29 10:27:23;;;;;;;4.85;2.95;;;23.40;75.90;;;;;;5107987;28;20030;-72
2022/04/29 10:29:50;;;;;;;6.78;3.17;;;23.50;72.40;;;;;;5107975;28;20095;-73
2022/04/29 10:32:15;;;;;;;4.68;3.03;;;23.50;74.60;;;;;;5107839;28;20047;-73
2022/04/29 10:34:41;;;;;;;4.97;2.90;;;23.70;74.00;;;;;;5110325;28;20020;-72
2022/04/29 10:37:12;;;;;;;5.57;2.90;;;23.70;73.00;;;;;;5109212;28;20119;-73
2022/04/29 10:39:39;;;;;;;6.57;3.10;;;23.70;74.10;;;;;;5108106;28;20105;-73
2022/04/29 10:42:09;;;;;;;7.28;3.92;;;23.50;75.00;;;;;;5108033;28;20446;-72
2022/04/29 10:45:02;;;;;;;4.53;3.15;;;23.60;75.70;;;;;;5107251;28;20032;-72
2022/04/29 10:47:46;;;;;;;10.48;4.07;;;23.40;76.00;;;;;;5099345;28;20038;-72
2022/04/29 10:50:31;;;;;;;7.78;3.92;;;23.20;77.20;;;;;;5096847;28;20051;-72
2022/04/29 10:53:04;;;;;;;6.85;4.15;;;23.10;76.30;;;;;;5112363;28;20050;-72
2022/04/29 10:55:31;;;;;;;8.02;3.67;;;23.10;78.70;;;;;;5110987;28;20108;-72
2022/04/29 10:58:02;;;;;;;7.47;4.25;;;23.40;77.30;;;;;;5111546;28;20071;-72
2022/04/29 11:00:28;;;;;;;6.85;3.90;;;23.40;77.50;;;;;;5110780;28;20019;-73
2022/04/29 11:02:55;;;;;;;9.38;4.50;;;23.50;76.50;;;;;;5111275;28;20157;-73
2022/04/29 11:05:39;;;;;;;8.52;4.63;;;23.10;76.90;;;;;;5111485;28;20028;-73
2022/04/29 11:08:11;;;;;;;5.80;4.22;;;22.90;79.00;;;;;;5095804;28;20016;-73
2022/04/29 11:10:54;;;;;;;9.40;4.40;;;23.20;78.30;;;;;;5114069;28;20024;-73
2022/04/29 11:13:26;;;;;;;9.73;4.82;;;23.30;77.10;;;;;;5113353;28;20027;-72
2022/04/29 11:15:52;;;;;;;9.98;4.45;;;23.10;79.50;;;;;;5109562;28;20394;-72
2022/04/29 11:18:26;;;;;;;8.20;4.55;;;22.90;81.70;;;;;;5111056;28;20039;-73
2022/04/29 11:20:56;;;;;;;12.52;4.70;;;22.90;81.00;;;;;;5111096;28;20075;-73
2022/04/29 11:26:18;;;;;;;9.95;4.53;;;22.60;80.70;;;;;;5096807;28;20035;-73
2022/04/29 11:28:44;;;;;;;7.82;4.20;;;22.60;81.20;;;;;;5112686;28;20024;-73
2022/04/29 11:31:11;;;;;;;7.25;4.63;;;22.80;83.00;;;;;;5112532;28;20126;-72
2022/04/29 11:33:40;;;;;;;10.73;4.15;;;22.90;80.20;;;;;;5110866;28;20015;-73
2022/04/29 11:36:10;;;;;;;7.28;3.88;;;23.00;79.70;;;;;;5109302;28;20019;-73
2022/04/29 11:38:44;;;;;;;7.40;3.72;;;22.90;79.90;;;;;;5110556;28;20044;-73
2022/04/29 11:41:30;;;;;;;6.97;3.90;;;22.70;79.80;;;;;;5095674;28;20024;-73
2022/04/29 11:43:57;;;;;;;7.43;4.00;;;22.50;79.20;;;;;;5111989;28;20036;-73
2022/04/29 11:46:23;;;;;;;8.80;4.10;;;22.50;79.10;;;;;;5111877;28;20046;-74
2022/04/29 11:48:53;;;;;;;7.60;3.92;;;22.50;80.50;;;;;;5110280;28;20016;-73
2022/04/29 11:51:19;;;;;;;7.10;3.35;;;22.50;78.50;;;;;;5110448;28;20043;-73
2022/04/29 11:53:56;;;;;;;8.30;4.18;;;22.50;78.30;;;;;;5110260;28;20076;-73
2022/04/29 11:56:23;;;;;;;10.23;3.65;;;22.60;79.00;;;;;;5109270;28;20043;-73
2022/04/29 11:58:52;;;;;;;6.95;3.80;;;22.60;78.30;;;;;;5112246;28;20444;-72
2022/04/29 12:01:19;;;;;;;8.48;4.10;;;22.70;79.40;;;;;;5112265;28;20055;-73
2022/04/29 12:03:49;;;;;;;7.95;3.45;;;22.70;78.50;;;;;;5109952;28;20026;-73
2022/04/29 12:06:16;;;;;;;7.25;3.75;;;22.70;76.80;;;;;;5110568;28;20054;-73
2022/04/29 12:08:42;;;;;;;7.15;3.70;;;22.60;78.00;;;;;;5109997;28;20043;-72
2022/04/29 12:11:08;;;;;;;9.57;4.30;;;22.60;76.60;;;;;;5110031;28;20077;-73
2022/04/29 12:13:36;;;;;;;9.82;4.15;;;22.60;77.40;;;;;;5113144;28;20032;-72
2022/04/29 12:16:04;;;;;;;12.38;4.25;;;22.60;77.00;;;;;;5110497;28;20032;-72
2022/04/29 12:18:56;;;;;;;9.13;4.57;;;22.80;76.10;;;;;;5108364;28;20064;-72
2022/04/29 12:21:24;;;;;;;7.50;3.83;;;22.50;75.70;;;;;;5106608;28;20102;-72
2022/04/29 12:23:50;;;;;;;8.25;3.90;;;22.80;75.50;;;;;;5109698;28;20497;-73
2022/04/29 12:26:16;;;;;;;10.52;3.90;;;22.60;75.70;;;;;;5109393;28;20028;-72
2022/04/29 12:28:42;;;;;;;8.90;3.58;;;22.60;74.40;;;;;;5112130;28;20031;-72
2022/04/29 12:36:59;;;;;;;10.05;3.65;;;22.40;73.80;;;;;;5109637;28;20039;-73
2022/04/29 12:39:25;;;;;;;11.82;3.80;;;22.40;74.40;;;;;;5109553;28;20043;-72
2022/04/29 12:42:12;;;;;;;6.40;3.53;;;22.60;74.20;;;;;;5107974;28;20381;-73
2022/04/29 12:45:14;;;;;;;11.60;3.75;;;22.50;73.70;;;;;;5109700;28;20039;-72
2022/04/29 12:47:50;;;;;;;9.77;3.92;;;22.50;76.20;;;;;;5109376;28;20498;-73
2022/04/29 12:50:37;;;;;;;7.47;3.97;;;22.50;77.10;;;;;;5109165;27;20024;-73
2022/04/29 12:53:13;;;;;;;8.15;3.55;;;22.40;78.00;;;;;;5093734;28;20135;-72
2022/04/29 12:55:50;;;;;;;8.10;4.03;;;22.00;76.30;;;;;;5108472;28;20032;-73
2022/04/29 12:58:18;;;;;;;10.35;3.70;;;22.20;76.10;;;;;;5111042;28;20397;-73
2022/04/29 13:00:46;;;;;;;7.70;3.70;;;22.20;76.50;;;;;;5109013;28;20106;-73
2022/04/29 13:03:26;;;;;;;11.68;3.90;;;22.60;76.30;;;;;;5108941;28;20111;-73
2022/04/29 13:05:53;;;;;;;8.13;3.53;;;22.50;75.60;;;;;;5109009;28;20024;-72
2022/04/29 13:08:19;;;;;;;6.93;3.60;;;22.30;75.60;;;;;;5108517;28;20456;-72
2022/04/29 13:10:46;;;;;;;7.55;3.50;;;22.50;76.00;;;;;;5110749;28;20051;-73
2022/04/29 13:13:13;;;;;;;7.20;3.40;;;22.60;75.30;;;;;;5110521;27;20038;-73
2022/04/29 13:15:41;;;;;;;5.97;3.47;;;22.60;76.30;;;;;;5108732;28;20547;-73
2022/04/29 13:18:07;;;;;;;7.60;3.35;;;22.60;76.70;;;;;;5108953;28;20027;-72